Time;durP1;ratioP1;P1;durP2;ratioP2;P2;SDS_P1;SDS_P2;PMS_P1;PMS_P2;Temp;Humidity;BMP_temperature;BMP_pressure;BME280_temperature;BME280_humidity;BME280_pressure;Samples;Min_cycle;Max_cycle;Signal;HPM_P1;HPM_P2
2023/03/04 00:00:11;;;;;;;22.87;19.10;;;;;20.30;101394.00;;;;2071179;28;20214;-72
2023/03/04 00:01:11;;;;;;;24.40;19.90;;;;;20.30;101386.00;;;;2070024;28;20206;-73
2023/03/04 00:02:12;;;;;;;24.03;19.63;;;;;20.30;101385.00;;;;2071305;28;20454;-73
2023/03/04 00:03:14;;;;;;;23.30;17.97;;;;;20.30;101364.00;;;;2070322;28;20218;-73
2023/03/04 00:04:15;;;;;;;22.35;18.38;;;;;20.30;101371.00;;;;2062552;28;20207;-73
2023/03/04 00:05:15;;;;;;;22.90;18.73;;;;;20.30;101386.00;;;;2062514;28;20301;-73
2023/03/04 00:06:15;;;;;;;23.80;17.70;;;;;20.30;101312.00;;;;2070412;28;20241;-73
2023/03/04 00:07:17;;;;;;;21.83;17.73;;;;;20.30;101373.00;;;;2070620;28;20202;-73
2023/03/04 00:08:18;;;;;;;20.02;17.17;;;;;20.20;101384.00;;;;2070128;28;20226;-73
2023/03/04 00:09:18;;;;;;;21.77;16.77;;;;;20.30;101387.00;;;;2070541;28;20218;-73
2023/03/04 00:10:18;;;;;;;20.27;15.97;;;;;20.30;101386.00;;;;2071042;28;20217;-73
2023/03/04 00:11:18;;;;;;;23.20;17.37;;;;;20.30;101379.00;;;;2070118;28;20214;-73
2023/03/04 00:12:19;;;;;;;19.90;16.67;;;;;20.20;101384.00;;;;2071227;28;20212;-73
2023/03/04 00:13:21;;;;;;;21.57;15.87;;;;;20.20;101386.00;;;;2070450;28;20215;-73
2023/03/04 00:14:21;;;;;;;19.38;15.90;;;;;20.30;101362.00;;;;2070460;28;20265;-74
2023/03/04 00:15:21;;;;;;;21.40;16.90;;;;;20.20;101378.00;;;;2071142;28;20217;-73
2023/03/04 00:16:25;;;;;;;20.23;15.23;;;;;20.20;101380.00;;;;2070983;28;20202;-73
2023/03/04 00:17:28;;;;;;;18.25;15.25;;;;;20.20;101386.00;;;;2071160;28;20206;-73
2023/03/04 00:18:29;;;;;;;18.50;16.23;;;;;20.20;101390.00;;;;2070717;28;20210;-72
2023/03/04 00:19:30;;;;;;;19.47;14.77;;;;;20.20;101387.00;;;;2070697;28;20349;-73
2023/03/04 00:20:30;;;;;;;17.23;14.68;;;;;20.20;101383.00;;;;2070691;28;20579;-73
2023/03/04 00:21:30;;;;;;;19.00;15.27;;;;;20.20;101384.00;;;;2071062;28;20214;-73
2023/03/04 00:22:31;;;;;;;18.80;14.83;;;;;20.20;101385.00;;;;2071067;28;20221;-73
2023/03/04 00:23:31;;;;;;;17.70;13.87;;;;;20.20;101368.00;;;;2071120;28;20298;-73
2023/03/04 00:24:31;;;;;;;19.40;15.23;;;;;20.20;101378.00;;;;2070354;28;20602;-73
2023/03/04 00:25:32;;;;;;;18.97;14.57;;;;;20.20;101385.00;;;;2070283;28;20236;-73
2023/03/04 00:26:32;;;;;;;19.23;14.17;;;;;20.20;101392.00;;;;2069375;28;20288;-73
2023/03/04 00:27:33;;;;;;;20.53;13.57;;;;;20.20;101384.00;;;;2071181;28;20229;-73
2023/03/04 00:28:33;;;;;;;14.77;12.30;;;;;20.20;101387.00;;;;2070788;28;20241;-73
2023/03/04 00:29:33;;;;;;;17.30;12.80;;;;;20.20;101380.00;;;;2071090;28;20225;-73
2023/03/04 00:30:34;;;;;;;20.60;13.83;;;;;20.20;101383.00;;;;2070913;28;20704;-73
2023/03/04 00:31:34;;;;;;;17.90;13.03;;;;;20.20;101381.00;;;;2071112;28;20226;-74
2023/03/04 00:32:34;;;;;;;16.43;13.00;;;;;20.20;101386.00;;;;2070830;28;20214;-73
2023/03/04 00:33:35;;;;;;;14.43;11.00;;;;;20.20;101384.00;;;;2070886;28;20293;-72
2023/03/04 00:34:35;;;;;;;15.00;12.43;;;;;20.10;101384.00;;;;2061715;28;20241;-73
2023/03/04 00:35:35;;;;;;;17.03;12.80;;;;;20.20;101387.00;;;;2070296;28;20214;-73
2023/03/04 00:36:36;;;;;;;14.00;11.67;;;;;20.10;101385.00;;;;2070287;28;20269;-74
2023/03/04 00:37:36;;;;;;;16.10;12.50;;;;;20.10;101384.00;;;;2070977;28;20218;-74
2023/03/04 00:38:36;;;;;;;16.63;11.20;;;;;20.10;101377.00;;;;2070742;28;20221;-74
2023/03/04 00:39:37;;;;;;;16.73;12.07;;;;;20.10;101377.00;;;;2070919;28;20334;-74
2023/03/04 00:40:37;;;;;;;16.20;12.13;;;;;20.10;101376.00;;;;2071101;28;20228;-74
2023/03/04 00:41:37;;;;;;;15.20;11.60;;;;;20.10;101374.00;;;;2072228;28;20222;-74
2023/03/04 00:42:38;;;;;;;16.43;11.47;;;;;20.10;101376.00;;;;2072378;28;20233;-74
2023/03/04 00:43:38;;;;;;;15.37;10.90;;;;;20.10;101375.00;;;;2072559;28;20218;-74
2023/03/04 00:44:38;;;;;;;12.00;9.70;;;;;20.10;101373.00;;;;2056317;28;20278;-74
2023/03/04 00:45:39;;;;;;;15.00;10.83;;;;;20.10;101377.00;;;;2056445;28;20323;-74
2023/03/04 00:46:39;;;;;;;13.07;9.80;;;;;20.10;101374.00;;;;2056339;28;20219;-74
2023/03/04 00:47:39;;;;;;;15.60;11.40;;;;;20.10;101381.00;;;;2056139;28;20277;-74
2023/03/04 00:48:39;;;;;;;13.63;10.20;;;;;20.10;101366.00;;;;2056128;28;20223;-74
2023/03/04 00:49:40;;;;;;;15.83;10.80;;;;;20.10;101372.00;;;;2055508;28;20266;-74
2023/03/04 00:50:40;;;;;;;14.23;10.47;;;;;20.10;101374.00;;;;2055884;28;20215;-73
2023/03/04 00:51:41;;;;;;;14.57;10.30;;;;;20.10;101373.00;;;;2055862;28;20231;-74
2023/03/04 00:52:41;;;;;;;16.50;9.90;;;;;20.00;101370.00;;;;2053179;28;20215;-75
2023/03/04 00:53:41;;;;;;;16.27;10.87;;;;;20.00;101374.00;;;;2062993;28;20219;-72
2023/03/04 00:54:42;;;;;;;12.93;10.20;;;;;20.00;101334.00;;;;2056208;28;20251;-73
2023/03/04 00:55:42;;;;;;;13.30;9.80;;;;;20.00;101368.00;;;;2055555;28;20219;-72
2023/03/04 00:56:42;;;;;;;13.37;10.23;;;;;20.00;101367.00;;;;2048085;28;20219;-73
2023/03/04 00:57:43;;;;;;;14.57;10.30;;;;;20.00;101366.00;;;;2048687;28;20343;-72
2023/03/04 00:58:43;;;;;;;13.43;9.80;;;;;20.00;101365.00;;;;2055540;28;20219;-72
2023/03/04 00:59:45;;;;;;;13.20;9.50;;;;;20.00;101364.00;;;;2054913;28;20227;-72
2023/03/04 01:00:45;;;;;;;15.65;10.25;;;;;20.00;101336.00;;;;2055973;28;20299;-73
2023/03/04 01:01:45;;;;;;;11.70;8.90;;;;;20.00;101359.00;;;;2039751;29;20261;-73
2023/03/04 01:02:46;;;;;;;12.80;8.60;;;;;20.00;101359.00;;;;2039662;29;20701;-73
2023/03/04 01:03:46;;;;;;;13.23;9.50;;;;;20.00;101364.00;;;;2054465;28;20230;-73
2023/03/04 01:04:46;;;;;;;14.57;10.10;;;;;20.00;101364.00;;;;2044934;28;20230;-73
2023/03/04 01:05:47;;;;;;;12.60;9.60;;;;;20.00;101363.00;;;;2054658;28;20224;-73
2023/03/04 01:06:47;;;;;;;12.60;8.90;;;;;20.00;101361.00;;;;2047267;28;20232;-74
2023/03/04 01:07:47;;;;;;;10.83;8.03;;;;;20.00;101346.00;;;;2039343;28;20233;-73
2023/03/04 01:08:48;;;;;;;11.70;8.17;;;;;20.00;101364.00;;;;2039193;29;20249;-73
2023/03/04 01:09:48;;;;;;;10.40;7.90;;;;;20.00;101364.00;;;;2055275;28;20224;-72
2023/03/04 01:10:49;;;;;;;11.33;7.70;;;;;20.00;101361.00;;;;2056485;28;20762;-73
2023/03/04 01:11:50;;;;;;;11.75;8.45;;;;;19.90;101337.00;;;;2056208;28;20361;-72
2023/03/04 01:12:50;;;;;;;13.23;8.73;;;;;19.90;101360.00;;;;2046922;28;20224;-72
2023/03/04 01:13:51;;;;;;;10.80;8.00;;;;;19.90;101356.00;;;;2039368;28;20528;-72
2023/03/04 01:14:51;;;;;;;10.33;8.03;;;;;19.90;101351.00;;;;2054969;28;20225;-72
2023/03/04 01:15:52;;;;;;;11.17;7.90;;;;;19.90;101364.00;;;;2056204;28;20220;-72
2023/03/04 01:16:52;;;;;;;12.07;7.83;;;;;19.90;101357.00;;;;2055841;28;20219;-73
2023/03/04 01:17:53;;;;;;;9.37;7.37;;;;;19.90;101359.00;;;;2056002;28;20227;-73
2023/03/04 01:18:53;;;;;;;10.57;7.87;;;;;20.00;101362.00;;;;2055293;28;20215;-72
2023/03/04 01:19:53;;;;;;;9.17;6.77;;;;;19.90;101352.00;;;;2055337;28;20455;-73
2023/03/04 01:20:54;;;;;;;9.73;7.17;;;;;19.90;101355.00;;;;2055769;28;20215;-72
2023/03/04 01:21:54;;;;;;;9.30;6.90;;;;;19.90;101350.00;;;;2056363;28;20270;-72
2023/03/04 01:22:55;;;;;;;10.27;7.27;;;;;19.90;101359.00;;;;2056331;28;20211;-72
2023/03/04 01:23:55;;;;;;;9.93;7.07;;;;;19.90;101352.00;;;;2056362;28;20242;-72
2023/03/04 01:24:55;;;;;;;9.93;7.00;;;;;19.90;101350.00;;;;2056020;28;20220;-72
2023/03/04 01:25:56;;;;;;;10.30;7.20;;;;;19.90;101350.00;;;;2055711;28;20223;-72
2023/03/04 01:26:56;;;;;;;11.13;6.67;;;;;20.00;101347.00;;;;2055675;28;20223;-72
2023/03/04 01:27:57;;;;;;;10.10;7.00;;;;;19.90;101336.00;;;;2055886;28;20285;-72
2023/03/04 01:28:57;;;;;;;10.27;6.73;;;;;19.90;101336.00;;;;2055513;28;20290;-73
2023/03/04 01:29:58;;;;;;;9.20;6.77;;;;;19.90;101335.00;;;;2054719;28;20723;-73
2023/03/04 01:30:58;;;;;;;8.80;6.23;;;;;19.90;101337.00;;;;2055749;28;20243;-72
2023/03/04 01:31:59;;;;;;;7.17;5.73;;;;;19.90;101347.00;;;;2054847;28;20227;-73
2023/03/04 01:33:00;;;;;;;11.90;7.27;;;;;19.90;101342.00;;;;2055917;28;20227;-73
2023/03/04 01:34:00;;;;;;;8.13;5.80;;;;;19.90;101339.00;;;;2055209;28;20580;-72
2023/03/04 01:35:00;;;;;;;8.30;6.13;;;;;19.90;101343.00;;;;2054901;28;20227;-72
2023/03/04 01:36:01;;;;;;;10.77;6.73;;;;;19.90;101334.00;;;;2055405;28;20215;-72
2023/03/04 01:37:01;;;;;;;8.60;6.50;;;;;19.50;101334.00;;;;2056016;28;20211;-72
2023/03/04 01:38:02;;;;;;;9.07;6.17;;;;;19.90;101338.00;;;;2055609;28;20687;-72
2023/03/04 01:39:03;;;;;;;6.97;5.80;;;;;19.90;101342.00;;;;2055738;28;20223;-72
2023/03/04 01:40:04;;;;;;;11.53;6.47;;;;;19.80;101337.00;;;;2056040;28;20570;-73
2023/03/04 01:41:06;;;;;;;9.93;6.75;;;;;19.90;101331.00;;;;2055536;28;20679;-72
2023/03/04 01:42:12;;;;;;;8.60;5.80;;;;;19.90;101337.00;;;;2055291;28;20223;-72
2023/03/04 01:43:18;;;;;;;8.82;5.97;;;;;19.90;101336.00;;;;2046933;28;20223;-72
2023/03/04 01:44:19;;;;;;;8.07;5.85;;;;;19.80;101310.00;;;;2050955;28;20717;-73
2023/03/04 01:45:19;;;;;;;9.43;5.60;;;;;19.80;101334.00;;;;2063401;28;20599;-73
2023/03/04 01:46:20;;;;;;;9.07;5.50;;;;;19.80;101341.00;;;;2062788;28;20215;-72
2023/03/04 01:47:21;;;;;;;9.60;5.70;;;;;19.80;101343.00;;;;2063109;28;20218;-72
2023/03/04 01:48:24;;;;;;;8.70;5.50;;;;;19.80;101338.00;;;;2062935;28;20663;-72
2023/03/04 01:49:25;;;;;;;7.70;5.85;;;;;19.80;101329.00;;;;2053317;28;20212;-73
2023/03/04 01:50:32;;;;;;;7.50;5.60;;;;;19.80;101341.00;;;;2054886;28;20211;-72
2023/03/04 01:51:33;;;;;;;10.25;5.97;;;;;19.80;101337.00;;;;2063832;28;20231;-73
2023/03/04 01:52:33;;;;;;;9.00;5.20;;;;;19.80;101346.00;;;;2070134;28;20268;-72
2023/03/04 01:53:33;;;;;;;7.13;4.60;;;;;19.80;101347.00;;;;2071583;28;20270;-72
2023/03/04 01:54:34;;;;;;;10.20;5.70;;;;;19.80;101341.00;;;;2072311;28;20218;-72
2023/03/04 01:55:34;;;;;;;5.37;4.20;;;;;19.80;101344.00;;;;2069655;28;20220;-72
2023/03/04 01:56:36;;;;;;;7.60;4.93;;;;;19.80;101334.00;;;;2063529;28;20706;-72
2023/03/04 01:57:37;;;;;;;8.25;5.18;;;;;19.80;101343.00;;;;2048763;28;20220;-72
2023/03/04 01:58:37;;;;;;;8.63;4.90;;;;;19.80;101335.00;;;;2055006;28;20218;-72
2023/03/04 01:59:37;;;;;;;8.80;5.00;;;;;19.80;101332.00;;;;2060595;28;20808;-73
2023/03/04 02:00:38;;;;;;;6.53;4.73;;;;;19.80;101336.00;;;;2071264;28;20214;-72
2023/03/04 02:01:39;;;;;;;8.73;4.77;;;;;19.80;101336.00;;;;2063190;28;20214;-71
2023/03/04 02:02:39;;;;;;;7.50;4.90;;;;;19.80;101332.00;;;;2071202;28;20221;-71
2023/03/04 02:03:39;;;;;;;8.27;4.70;;;;;19.80;101331.00;;;;2071935;28;20268;-72
2023/03/04 02:04:40;;;;;;;8.10;4.30;;;;;19.80;101338.00;;;;2071787;28;20214;-72
2023/03/04 02:05:42;;;;;;;6.73;4.27;;;;;19.80;101336.00;;;;2070825;28;20340;-72
2023/03/04 02:06:42;;;;;;;7.75;5.00;;;;;19.80;101342.00;;;;2071276;28;20234;-73
2023/03/04 02:07:43;;;;;;;7.63;4.53;;;;;19.80;101327.00;;;;2055226;28;20274;-72
2023/03/04 02:08:43;;;;;;;9.13;4.43;;;;;19.80;101332.00;;;;2055269;28;20306;-72
2023/03/04 02:09:43;;;;;;;8.13;4.50;;;;;19.80;101328.00;;;;2072085;28;20268;-73
2023/03/04 02:10:44;;;;;;;7.37;4.40;;;;;19.80;101330.00;;;;2071367;28;20214;-73
2023/03/04 02:11:44;;;;;;;7.23;4.03;;;;;19.80;101325.00;;;;2061233;28;20226;-73
2023/03/04 02:12:45;;;;;;;6.93;5.07;;;;;19.80;101335.00;;;;2071410;28;20670;-73
2023/03/04 02:13:45;;;;;;;6.67;4.33;;;;;19.80;101323.00;;;;2063161;28;20207;-73
2023/03/04 02:14:45;;;;;;;6.97;4.30;;;;;19.80;101323.00;;;;2063211;28;21392;-73
2023/03/04 02:15:46;;;;;;;8.90;4.60;;;;;19.70;101327.00;;;;2063074;28;20251;-73
2023/03/04 02:16:47;;;;;;;8.73;4.47;;;;;19.70;101297.00;;;;2063003;28;20278;-74
2023/03/04 02:17:47;;;;;;;6.90;4.77;;;;;19.70;101324.00;;;;2063206;28;20222;-73
2023/03/04 02:18:48;;;;;;;7.53;4.53;;;;;19.70;101325.00;;;;2071056;28;20245;-73
2023/03/04 02:19:52;;;;;;;7.73;4.07;;;;;19.70;101323.00;;;;2072006;28;20309;-74
2023/03/04 02:21:19;;;;;;;7.40;4.43;;;;;19.70;101331.00;;;;2071009;28;20301;-73
2023/03/04 02:22:19;;;;;;;8.68;4.30;;;;;19.70;101332.00;;;;2071242;28;20700;-73
2023/03/04 02:23:36;;;;;;;8.10;4.97;;;;;19.70;101322.00;;;;2070693;28;20218;-73
2023/03/04 02:24:37;;;;;;;6.97;4.35;;;;;19.70;101325.00;;;;2070783;28;20266;-73
2023/03/04 02:26:02;;;;;;;7.23;4.03;;;;;19.70;101327.00;;;;2071032;28;20226;-74
2023/03/04 02:27:02;;;;;;;6.88;3.83;;;;;19.70;101325.00;;;;2061714;28;20694;-74
2023/03/04 02:28:03;;;;;;;9.77;5.00;;;;;19.70;101321.00;;;;2069131;28;20234;-74
2023/03/04 02:29:03;;;;;;;7.43;3.80;;;;;19.70;101319.00;;;;2070227;28;20275;-75
2023/03/04 02:30:04;;;;;;;6.10;4.00;;;;;19.70;101320.00;;;;2071595;28;20709;-74
2023/03/04 02:31:05;;;;;;;7.53;3.55;;;;;19.70;101310.00;;;;2070813;28;20577;-74
2023/03/04 02:32:05;;;;;;;6.23;3.83;;;;;19.70;101306.00;;;;2062689;28;20227;-74
2023/03/04 02:33:06;;;;;;;7.33;3.80;;;;;19.70;101322.00;;;;2062752;28;20214;-74
2023/03/04 02:34:11;;;;;;;5.27;3.73;;;;;19.70;101314.00;;;;2071053;28;20296;-74
2023/03/04 02:35:16;;;;;;;6.78;3.70;;;;;19.70;101268.00;;;;2071647;28;20211;-74
2023/03/04 02:36:16;;;;;;;6.93;3.70;;;;;19.70;101315.00;;;;2071002;28;20645;-73
2023/03/04 02:37:17;;;;;;;7.17;3.60;;;;;19.70;101309.00;;;;2070879;28;20210;-74
2023/03/04 02:38:17;;;;;;;5.63;3.67;;;;;19.70;101322.00;;;;2062353;28;20211;-74
2023/03/04 02:39:44;;;;;;;8.27;4.03;;;;;19.60;101325.00;;;;2062905;28;20985;-73
2023/03/04 02:40:46;;;;;;;6.60;3.30;;;;;19.60;101297.00;;;;2068927;28;20220;-74
2023/03/04 02:41:46;;;;;;;12.68;3.08;;;;;19.70;101321.00;;;;2070970;28;20214;-74
2023/03/04 02:42:47;;;;;;;6.53;3.60;;;;;19.60;101310.00;;;;2070750;28;20231;-74
2023/03/04 02:43:50;;;;;;;7.00;3.50;;;;;19.60;101305.00;;;;2069467;28;20524;-73
2023/03/04 02:44:58;;;;;;;7.78;3.70;;;;;19.60;101313.00;;;;2061144;28;20233;-73
2023/03/04 02:45:58;;;;;;;6.05;3.45;;;;;19.60;101310.00;;;;2062020;28;20215;-74
2023/03/04 02:46:59;;;;;;;6.83;3.30;;;;;19.60;101311.00;;;;2062739;28;20242;-74
2023/03/04 02:47:59;;;;;;;6.93;3.33;;;;;19.60;101318.00;;;;2062471;28;20675;-74
2023/03/04 02:48:59;;;;;;;7.13;3.70;;;;;19.60;101306.00;;;;2062694;28;20218;-73
2023/03/04 02:50:00;;;;;;;5.77;3.33;;;;;19.60;101305.00;;;;2061857;28;20226;-74
2023/03/04 02:51:00;;;;;;;8.10;3.37;;;;;19.60;101310.00;;;;2062436;28;20219;-73
2023/03/04 02:52:03;;;;;;;7.73;4.07;;;;;19.60;101306.00;;;;2054648;28;20223;-74
2023/03/04 02:53:03;;;;;;;8.88;3.28;;;;;19.60;101302.00;;;;2046337;28;20291;-74
2023/03/04 02:54:03;;;;;;;7.30;3.10;;;;;19.60;101278.00;;;;2054393;28;20334;-74
2023/03/04 02:55:04;;;;;;;5.83;3.47;;;;;19.60;101295.00;;;;2062781;28;20207;-74
2023/03/04 02:56:05;;;;;;;6.87;3.50;;;;;19.60;101280.00;;;;2062382;28;20242;-74
2023/03/04 02:57:07;;;;;;;6.50;3.70;;;;;19.60;101297.00;;;;2054242;28;20250;-74
2023/03/04 02:58:08;;;;;;;6.82;3.28;;;;;19.60;101307.00;;;;2046684;28;20327;-74
2023/03/04 02:59:09;;;;;;;5.30;3.00;;;;;19.60;101298.00;;;;2054446;28;20222;-74
2023/03/04 03:00:10;;;;;;;6.47;3.17;;;;;19.60;101299.00;;;;2062220;28;20882;-74
2023/03/04 03:01:10;;;;;;;4.25;2.83;;;;;19.60;101291.00;;;;2062570;28;20264;-74
2023/03/04 03:02:11;;;;;;;5.87;3.60;;;;;19.60;101298.00;;;;2055785;28;20609;-74
2023/03/04 03:03:11;;;;;;;6.30;2.87;;;;;19.60;101287.00;;;;2062273;28;20769;-74
2023/03/04 03:04:11;;;;;;;5.30;2.77;;;;;19.60;101295.00;;;;2062014;28;20964;-74
2023/03/04 03:05:12;;;;;;;5.60;2.90;;;;;19.60;101298.00;;;;2061901;28;20617;-73
2023/03/04 03:06:12;;;;;;;4.97;2.73;;;;;19.60;101295.00;;;;2054401;28;20212;-74
2023/03/04 03:07:12;;;;;;;5.57;2.63;;;;;19.50;101294.00;;;;2062659;28;20254;-73
2023/03/04 03:08:13;;;;;;;7.73;3.63;;;;;19.50;101299.00;;;;2062832;28;20250;-74
2023/03/04 03:09:13;;;;;;;6.37;3.27;;;;;19.50;101301.00;;;;2062204;28;20215;-74
2023/03/04 03:10:14;;;;;;;4.93;2.50;;;;;19.50;101299.00;;;;2061948;28;20225;-74
2023/03/04 03:11:14;;;;;;;6.00;3.10;;;;;19.50;101291.00;;;;2061966;28;20706;-73
2023/03/04 03:12:14;;;;;;;6.20;3.27;;;;;19.60;101299.00;;;;2053940;28;20208;-74
2023/03/04 03:13:15;;;;;;;5.10;3.17;;;;;19.50;101299.00;;;;2054200;28;20281;-74
2023/03/04 03:14:15;;;;;;;6.67;2.70;;;;;19.60;101295.00;;;;2062153;28;20219;-74
2023/03/04 03:15:16;;;;;;;4.20;2.63;;;;;19.50;101286.00;;;;2054079;28;20204;-73
2023/03/04 03:16:16;;;;;;;6.53;3.27;;;;;19.50;101293.00;;;;2053822;28;20219;-73
2023/03/04 03:17:16;;;;;;;7.67;2.60;;;;;19.50;101285.00;;;;2053908;28;20207;-73
2023/03/04 03:18:17;;;;;;;5.27;3.07;;;;;19.50;101287.00;;;;2062552;28;20214;-74
2023/03/04 03:19:17;;;;;;;7.13;2.90;;;;;19.50;101289.00;;;;2062811;28;20215;-74
2023/03/04 03:20:17;;;;;;;5.33;3.00;;;;;19.50;101294.00;;;;2063192;28;20215;-73
2023/03/04 03:21:18;;;;;;;4.93;2.97;;;;;19.50;101288.00;;;;2062723;28;20203;-74
2023/03/04 03:22:18;;;;;;;5.53;2.70;;;;;19.50;101284.00;;;;2061977;28;20207;-74
2023/03/04 03:23:19;;;;;;;6.23;2.77;;;;;19.50;101288.00;;;;2062566;28;20210;-74
2023/03/04 03:24:20;;;;;;;6.15;3.28;;;;;19.50;101287.00;;;;2062410;28;20276;-74
2023/03/04 03:25:20;;;;;;;5.23;2.40;;;;;19.50;101287.00;;;;2062710;28;20211;-74
2023/03/04 03:26:20;;;;;;;5.60;3.13;;;;;19.50;101290.00;;;;2062086;28;20241;-74
2023/03/04 03:27:21;;;;;;;5.80;2.67;;;;;19.50;101281.00;;;;2062924;28;20614;-73
2023/03/04 03:28:21;;;;;;;4.20;2.90;;;;;19.50;101281.00;;;;2062826;28;20269;-74
2023/03/04 03:29:21;;;;;;;9.73;2.83;;;;;19.50;101281.00;;;;2062984;28;20211;-74
2023/03/04 03:30:22;;;;;;;5.53;2.97;;;;;19.50;101278.00;;;;2063247;28;20217;-74
2023/03/04 03:31:22;;;;;;;4.17;2.50;;;;;19.50;101279.00;;;;2063184;28;20215;-73
2023/03/04 03:32:22;;;;;;;6.10;2.83;;;;;19.50;101283.00;;;;2063060;28;20210;-74
2023/03/04 03:33:23;;;;;;;4.53;2.40;;;;;19.50;101277.00;;;;2062891;28;20207;-74
2023/03/04 03:34:23;;;;;;;5.10;2.80;;;;;19.50;101281.00;;;;2062998;28;20215;-74
2023/03/04 03:35:23;;;;;;;6.00;2.83;;;;;19.50;101277.00;;;;2063209;28;20214;-74
2023/03/04 03:36:24;;;;;;;5.83;2.87;;;;;19.50;101274.00;;;;2063261;28;20231;-73
2023/03/04 03:37:24;;;;;;;4.10;2.93;;;;;19.50;101277.00;;;;2062972;28;20203;-73
2023/03/04 03:38:25;;;;;;;5.90;2.63;;;;;19.40;101273.00;;;;2062663;28;20289;-74
2023/03/04 03:39:25;;;;;;;6.37;2.73;;;;;19.50;101276.00;;;;2063006;28;20681;-74
2023/03/04 03:40:25;;;;;;;5.37;2.60;;;;;19.50;101275.00;;;;2063129;28;20726;-74
2023/03/04 03:41:26;;;;;;;5.67;2.73;;;;;19.50;101282.00;;;;2060945;28;20718;-73
2023/03/04 03:42:26;;;;;;;7.93;2.83;;;;;19.50;101283.00;;;;2063170;28;20211;-73
2023/03/04 03:43:26;;;;;;;4.53;2.17;;;;;19.50;101275.00;;;;2063144;28;20207;-74
2023/03/04 03:44:27;;;;;;;5.30;2.57;;;;;19.40;101274.00;;;;2063071;28;20207;-74
2023/03/04 03:45:27;;;;;;;6.37;2.50;;;;;19.40;101282.00;;;;2063030;28;20206;-74
2023/03/04 03:46:28;;;;;;;5.80;2.50;;;;;19.40;101274.00;;;;2062482;28;20214;-74
2023/03/04 03:47:29;;;;;;;6.18;2.53;;;;;19.40;101284.00;;;;2062593;28;20215;-74
2023/03/04 03:48:29;;;;;;;5.97;2.80;;;;;19.40;101290.00;;;;2062242;28;20726;-74
2023/03/04 03:49:29;;;;;;;5.80;3.60;;;;;19.40;101277.00;;;;2062250;28;20629;-74
2023/03/04 03:50:30;;;;;;;5.57;2.43;;;;;19.40;101277.00;;;;2061358;28;20698;-74
2023/03/04 03:51:30;;;;;;;7.70;3.30;;;;;19.40;101280.00;;;;2063082;28;20914;-74
2023/03/04 03:52:30;;;;;;;6.00;3.47;;;;;19.40;101281.00;;;;2063226;28;25698;-74
2023/03/04 03:53:30;;;;;;;5.30;2.50;;;;;19.40;101280.00;;;;2062901;28;20218;-74
2023/03/04 03:54:31;;;;;;;4.20;2.30;;;;;19.40;101277.00;;;;2061934;28;20219;-74
2023/03/04 03:55:31;;;;;;;6.20;2.60;;;;;19.40;101276.00;;;;2063039;28;20238;-74
2023/03/04 03:56:31;;;;;;;4.27;2.40;;;;;19.40;101281.00;;;;2062618;28;20215;-74
2023/03/04 03:57:32;;;;;;;5.30;2.43;;;;;19.40;101265.00;;;;2063030;28;20226;-74
2023/03/04 03:58:32;;;;;;;6.20;3.13;;;;;19.40;101274.00;;;;2062395;28;20214;-74
2023/03/04 03:59:32;;;;;;;4.30;2.10;;;;;19.40;101276.00;;;;2062981;28;20229;-74
2023/03/04 04:00:33;;;;;;;6.20;3.03;;;;;19.40;101271.00;;;;2062954;28;20230;-74
2023/03/04 04:01:33;;;;;;;5.50;2.63;;;;;19.40;101272.00;;;;2063030;28;20229;-74
2023/03/04 04:02:33;;;;;;;5.80;2.60;;;;;19.40;101274.00;;;;2063034;28;20219;-73
2023/03/04 04:03:34;;;;;;;5.80;3.07;;;;;19.40;101278.00;;;;2062830;28;20655;-74
2023/03/04 04:04:34;;;;;;;5.13;2.97;;;;;19.40;101262.00;;;;2063006;28;20214;-74
2023/03/04 04:05:35;;;;;;;4.10;2.07;;;;;19.40;101279.00;;;;2063054;28;20214;-74
2023/03/04 04:06:35;;;;;;;5.13;2.50;;;;;19.40;101261.00;;;;2062929;28;20306;-74
2023/03/04 04:07:35;;;;;;;5.07;2.17;;;;;19.40;101269.00;;;;2062914;28;20584;-74
2023/03/04 04:08:36;;;;;;;5.43;2.23;;;;;19.40;101279.00;;;;2062048;28;20701;-74
2023/03/04 04:09:36;;;;;;;4.77;2.20;;;;;19.40;101280.00;;;;2062124;28;20689;-74
2023/03/04 04:10:36;;;;;;;4.23;2.20;;;;;19.40;101260.00;;;;2062189;28;20675;-74
2023/03/04 04:11:37;;;;;;;5.30;2.60;;;;;19.40;101272.00;;;;2062015;28;20223;-74
2023/03/04 04:12:37;;;;;;;7.50;2.30;;;;;19.30;101271.00;;;;2062618;28;21008;-74
2023/03/04 04:13:37;;;;;;;4.13;2.30;;;;;19.40;101249.00;;;;2062983;28;20222;-74
2023/03/04 04:14:38;;;;;;;6.97;2.87;;;;;19.40;101266.00;;;;2062913;28;20222;-74
2023/03/04 04:15:38;;;;;;;7.83;2.57;;;;;19.40;101270.00;;;;2063116;28;20215;-74
2023/03/04 04:16:38;;;;;;;6.33;1.90;;;;;19.40;101272.00;;;;2064592;28;20631;-73
2023/03/04 04:17:39;;;;;;;4.13;1.87;;;;;19.30;101267.00;;;;2064338;28;20218;-74
2023/03/04 04:18:39;;;;;;;5.00;2.20;;;;;19.40;101268.00;;;;2063618;28;20301;-74
2023/03/04 04:19:40;;;;;;;6.77;2.13;;;;;19.40;101263.00;;;;2063819;28;20245;-73
2023/03/04 04:20:40;;;;;;;4.50;1.60;;;;;19.30;101251.00;;;;2064616;28;20219;-74
2023/03/04 04:21:40;;;;;;;4.93;2.20;;;;;19.30;101281.00;;;;2064763;28;20266;-74
2023/03/04 04:22:40;;;;;;;4.43;2.63;;;;;19.30;101268.00;;;;2064609;28;20637;-73
2023/03/04 04:23:41;;;;;;;6.60;2.67;;;;;19.40;101265.00;;;;2063839;28;20686;-73
2023/03/04 04:24:41;;;;;;;4.60;1.90;;;;;19.30;101266.00;;;;2055830;28;20671;-73
2023/03/04 04:25:42;;;;;;;4.70;2.00;;;;;19.30;101263.00;;;;2063535;28;20234;-74
2023/03/04 04:26:42;;;;;;;5.80;2.27;;;;;19.40;101264.00;;;;2064599;28;20242;-74
2023/03/04 04:27:42;;;;;;;3.57;1.70;;;;;19.20;101260.00;;;;2064462;28;20215;-73
2023/03/04 04:28:43;;;;;;;5.53;2.70;;;;;19.30;101260.00;;;;2064183;28;20630;-74
2023/03/04 04:29:43;;;;;;;5.40;2.00;;;;;19.30;101262.00;;;;2064437;28;20592;-74
2023/03/04 04:30:43;;;;;;;4.47;1.90;;;;;19.30;101266.00;;;;2054546;28;20577;-74
2023/03/04 04:31:44;;;;;;;5.40;2.00;;;;;19.30;101272.00;;;;2063636;28;20321;-74
2023/03/04 04:32:44;;;;;;;3.77;1.93;;;;;19.30;101272.00;;;;2064513;28;20222;-74
2023/03/04 04:33:44;;;;;;;5.10;2.70;;;;;19.30;101269.00;;;;2064070;28;20234;-74
2023/03/04 04:34:45;;;;;;;4.90;1.70;;;;;19.30;101270.00;;;;2063626;28;20664;-74
2023/03/04 04:35:45;;;;;;;5.03;2.13;;;;;19.30;101268.00;;;;2063699;28;20749;-74
2023/03/04 04:36:45;;;;;;;4.83;2.10;;;;;19.30;101267.00;;;;2064397;28;20681;-74
2023/03/04 04:37:46;;;;;;;4.30;2.10;;;;;19.30;101265.00;;;;2064484;28;20239;-73
2023/03/04 04:38:48;;;;;;;3.80;1.80;;;;;19.30;101269.00;;;;2064121;28;20219;-74
2023/03/04 04:39:50;;;;;;;5.30;2.05;;;;;19.30;101274.00;;;;2055854;28;20718;-75
2023/03/04 04:40:50;;;;;;;3.75;1.65;;;;;19.30;101266.00;;;;2057757;28;20230;-73
2023/03/04 04:41:51;;;;;;;5.17;2.13;;;;;19.20;101267.00;;;;2064288;28;20215;-74
2023/03/04 04:42:51;;;;;;;5.60;2.33;;;;;19.30;101266.00;;;;2064391;28;20222;-74
2023/03/04 04:43:51;;;;;;;3.50;1.83;;;;;19.20;101268.00;;;;2064988;28;20230;-74
2023/03/04 04:44:52;;;;;;;4.00;1.80;;;;;19.30;101265.00;;;;2072396;28;20268;-74
2023/03/04 04:45:52;;;;;;;4.03;1.90;;;;;19.30;101264.00;;;;2070830;28;20214;-73
2023/03/04 04:46:52;;;;;;;4.83;1.60;;;;;19.30;101269.00;;;;2072085;28;20245;-74
2023/03/04 04:47:54;;;;;;;3.97;1.77;;;;;19.30;101271.00;;;;2070606;28;20703;-74
2023/03/04 04:48:54;;;;;;;5.20;2.05;;;;;19.20;101274.00;;;;2071546;28;20588;-74
2023/03/04 04:49:55;;;;;;;4.27;2.00;;;;;19.30;101268.00;;;;2070653;28;20226;-74
2023/03/04 04:50:55;;;;;;;3.63;1.77;;;;;19.30;101274.00;;;;2070899;28;20222;-74
2023/03/04 04:51:55;;;;;;;3.53;1.73;;;;;19.30;101274.00;;;;2071214;28;20225;-74
2023/03/04 04:52:56;;;;;;;3.60;1.70;;;;;18.90;101270.00;;;;2071308;28;20214;-73
2023/03/04 04:53:57;;;;;;;3.20;1.50;;;;;19.30;101274.00;;;;2071022;28;20225;-73
2023/03/04 04:54:58;;;;;;;3.75;1.88;;;;;19.30;101276.00;;;;2070737;28;20286;-74
2023/03/04 04:55:58;;;;;;;5.30;1.90;;;;;19.30;101276.00;;;;2070494;28;20670;-73
2023/03/04 04:56:58;;;;;;;5.23;2.00;;;;;19.30;101277.00;;;;2071602;28;20214;-74
2023/03/04 04:57:59;;;;;;;4.60;2.30;;;;;19.30;101282.00;;;;2070882;28;20225;-74
2023/03/04 04:59:01;;;;;;;3.03;1.73;;;;;19.30;101284.00;;;;2071322;28;20246;-74